sensor_id;sensor_type;location;lat;lon;timestamp;temperature;humidity
61392;DHT22;47261;52.892;5.738;2022-10-16T00:01:34;14.90;91.90
61392;DHT22;47261;52.892;5.738;2022-10-16T00:04:01;14.90;91.90
61392;DHT22;47261;52.892;5.738;2022-10-16T00:06:28;14.80;91.90
61392;DHT22;47261;52.892;5.738;2022-10-16T00:08:54;14.80;91.90
61392;DHT22;47261;52.892;5.738;2022-10-16T00:11:23;14.90;92.00
61392;DHT22;47261;52.892;5.738;2022-10-16T00:13:51;14.90;91.90
61392;DHT22;47261;52.892;5.738;2022-10-16T00:16:17;14.90;91.90
61392;DHT22;47261;52.892;5.738;2022-10-16T00:18:43;14.90;91.90
61392;DHT22;47261;52.892;5.738;2022-10-16T00:21:12;14.90;91.70
61392;DHT22;47261;52.892;5.738;2022-10-16T00:23:38;15.00;91.70
61392;DHT22;47261;52.892;5.738;2022-10-16T00:26:08;15.00;91.60
61392;DHT22;47261;52.892;5.738;2022-10-16T00:28:35;15.10;91.50
61392;DHT22;47261;52.892;5.738;2022-10-16T00:31:11;15.10;91.50
61392;DHT22;47261;52.892;5.738;2022-10-16T00:33:38;15.10;91.50
61392;DHT22;47261;52.892;5.738;2022-10-16T00:36:07;15.10;91.30
61392;DHT22;47261;52.892;5.738;2022-10-16T00:38:32;15.10;91.30
61392;DHT22;47261;52.892;5.738;2022-10-16T00:40:58;15.10;91.30
61392;DHT22;47261;52.892;5.738;2022-10-16T00:43:39;15.10;91.20
61392;DHT22;47261;52.892;5.738;2022-10-16T00:46:27;15.10;91.10
61392;DHT22;47261;52.892;5.738;2022-10-16T00:49:09;15.10;91.20
61392;DHT22;47261;52.892;5.738;2022-10-16T00:51:54;15.10;91.00
61392;DHT22;47261;52.892;5.738;2022-10-16T00:54:22;15.10;90.90
61392;DHT22;47261;52.892;5.738;2022-10-16T00:56:49;15.10;90.80
61392;DHT22;47261;52.892;5.738;2022-10-16T00:59:19;15.10;90.70
61392;DHT22;47261;52.892;5.738;2022-10-16T01:01:45;15.10;90.70
61392;DHT22;47261;52.892;5.738;2022-10-16T01:04:11;15.10;90.60
61392;DHT22;47261;52.892;5.738;2022-10-16T01:07:09;15.10;90.70
61392;DHT22;47261;52.892;5.738;2022-10-16T01:15:42;15.10;90.70
61392;DHT22;47261;52.892;5.738;2022-10-16T01:18:14;15.10;90.70
61392;DHT22;47261;52.892;5.738;2022-10-16T01:20:49;15.00;90.60
61392;DHT22;47261;52.892;5.738;2022-10-16T01:31:20;14.90;90.80
61392;DHT22;47261;52.892;5.738;2022-10-16T01:34:37;14.90;90.80
61392;DHT22;47261;52.892;5.738;2022-10-16T01:36:45;14.80;90.80
61392;DHT22;47261;52.892;5.738;2022-10-16T01:39:13;14.80;90.80
61392;DHT22;47261;52.892;5.738;2022-10-16T01:41:54;14.80;90.80
61392;DHT22;47261;52.892;5.738;2022-10-16T01:44:32;14.80;90.90
61392;DHT22;47261;52.892;5.738;2022-10-16T01:46:59;14.80;90.80
61392;DHT22;47261;52.892;5.738;2022-10-16T01:49:30;14.70;90.80
61392;DHT22;47261;52.892;5.738;2022-10-16T01:51:59;14.80;90.80
61392;DHT22;47261;52.892;5.738;2022-10-16T01:54:30;14.70;90.70
61392;DHT22;47261;52.892;5.738;2022-10-16T01:56:58;14.70;90.70
61392;DHT22;47261;52.892;5.738;2022-10-16T01:59:26;14.70;90.70
61392;DHT22;47261;52.892;5.738;2022-10-16T02:01:59;14.70;90.70
61392;DHT22;47261;52.892;5.738;2022-10-16T02:04:31;14.70;90.70
61392;DHT22;47261;52.892;5.738;2022-10-16T02:06:58;14.60;90.70
61392;DHT22;47261;52.892;5.738;2022-10-16T02:09:24;14.60;90.60
61392;DHT22;47261;52.892;5.738;2022-10-16T02:11:51;14.60;90.60
61392;DHT22;47261;52.892;5.738;2022-10-16T02:14:17;14.60;90.70
61392;DHT22;47261;52.892;5.738;2022-10-16T02:16:45;14.60;90.70
61392;DHT22;47261;52.892;5.738;2022-10-16T02:19:13;14.60;90.70
61392;DHT22;47261;52.892;5.738;2022-10-16T02:21:51;14.50;90.70
61392;DHT22;47261;52.892;5.738;2022-10-16T02:24:22;14.50;90.80
61392;DHT22;47261;52.892;5.738;2022-10-16T02:27:11;14.50;90.70
61392;DHT22;47261;52.892;5.738;2022-10-16T02:29:46;14.40;90.70
61392;DHT22;47261;52.892;5.738;2022-10-16T02:32:17;14.50;90.70
61392;DHT22;47261;52.892;5.738;2022-10-16T02:34:46;14.50;90.70
61392;DHT22;47261;52.892;5.738;2022-10-16T02:37:12;14.50;90.70
61392;DHT22;47261;52.892;5.738;2022-10-16T02:39:39;14.50;90.70
61392;DHT22;47261;52.892;5.738;2022-10-16T02:42:11;14.50;90.70
61392;DHT22;47261;52.892;5.738;2022-10-16T02:44:36;14.50;90.70
61392;DHT22;47261;52.892;5.738;2022-10-16T02:47:02;14.50;90.70
61392;DHT22;47261;52.892;5.738;2022-10-16T02:49:28;14.50;90.80
61392;DHT22;47261;52.892;5.738;2022-10-16T02:51:53;14.60;90.80
61392;DHT22;47261;52.892;5.738;2022-10-16T02:54:19;14.60;90.80
61392;DHT22;47261;52.892;5.738;2022-10-16T02:56:44;14.60;90.80
61392;DHT22;47261;52.892;5.738;2022-10-16T02:59:10;14.60;90.80
61392;DHT22;47261;52.892;5.738;2022-10-16T03:01:36;14.60;90.80
61392;DHT22;47261;52.892;5.738;2022-10-16T03:04:01;14.60;90.80
61392;DHT22;47261;52.892;5.738;2022-10-16T03:06:27;14.60;90.90
61392;DHT22;47261;52.892;5.738;2022-10-16T03:08:52;14.60;91.00
61392;DHT22;47261;52.892;5.738;2022-10-16T03:11:18;14.60;91.10
61392;DHT22;47261;52.892;5.738;2022-10-16T03:13:44;14.70;91.20
61392;DHT22;47261;52.892;5.738;2022-10-16T03:16:09;14.70;91.20
61392;DHT22;47261;52.892;5.738;2022-10-16T03:18:35;14.70;91.20
61392;DHT22;47261;52.892;5.738;2022-10-16T03:21:00;14.70;91.20
61392;DHT22;47261;52.892;5.738;2022-10-16T03:23:26;14.70;91.20
61392;DHT22;47261;52.892;5.738;2022-10-16T03:25:52;14.70;91.20
61392;DHT22;47261;52.892;5.738;2022-10-16T03:28:18;14.70;91.30
61392;DHT22;47261;52.892;5.738;2022-10-16T03:30:43;14.70;91.30
61392;DHT22;47261;52.892;5.738;2022-10-16T03:33:09;14.60;91.30
61392;DHT22;47261;52.892;5.738;2022-10-16T03:35:35;14.60;91.40
61392;DHT22;47261;52.892;5.738;2022-10-16T03:38:01;14.60;91.50
61392;DHT22;47261;52.892;5.738;2022-10-16T03:40:26;14.60;91.60
61392;DHT22;47261;52.892;5.738;2022-10-16T03:42:52;14.60;91.70
61392;DHT22;47261;52.892;5.738;2022-10-16T03:45:20;14.60;91.80
61392;DHT22;47261;52.892;5.738;2022-10-16T03:47:46;14.60;91.90
61392;DHT22;47261;52.892;5.738;2022-10-16T03:50:12;14.60;91.90
61392;DHT22;47261;52.892;5.738;2022-10-16T03:52:38;14.50;91.90
61392;DHT22;47261;52.892;5.738;2022-10-16T03:55:04;14.50;91.90
61392;DHT22;47261;52.892;5.738;2022-10-16T03:57:30;14.50;92.00
61392;DHT22;47261;52.892;5.738;2022-10-16T03:59:55;14.50;92.10
61392;DHT22;47261;52.892;5.738;2022-10-16T04:02:21;14.50;92.20
61392;DHT22;47261;52.892;5.738;2022-10-16T04:04:46;14.50;92.30
61392;DHT22;47261;52.892;5.738;2022-10-16T04:07:12;14.50;92.40
61392;DHT22;47261;52.892;5.738;2022-10-16T04:09:37;14.50;92.50
61392;DHT22;47261;52.892;5.738;2022-10-16T04:12:03;14.50;92.50
61392;DHT22;47261;52.892;5.738;2022-10-16T04:14:29;14.50;92.70
61392;DHT22;47261;52.892;5.738;2022-10-16T04:16:54;14.50;93.50
61392;DHT22;47261;52.892;5.738;2022-10-16T04:19:20;14.50;94.00
61392;DHT22;47261;52.892;5.738;2022-10-16T04:21:45;14.40;94.30
61392;DHT22;47261;52.892;5.738;2022-10-16T04:24:11;14.40;94.40
61392;DHT22;47261;52.892;5.738;2022-10-16T04:26:37;14.40;94.20
61392;DHT22;47261;52.892;5.738;2022-10-16T04:29:03;14.40;94.10
61392;DHT22;47261;52.892;5.738;2022-10-16T04:31:28;14.40;94.00
61392;DHT22;47261;52.892;5.738;2022-10-16T04:33:54;14.40;93.90
61392;DHT22;47261;52.892;5.738;2022-10-16T04:36:20;14.40;93.90
61392;DHT22;47261;52.892;5.738;2022-10-16T04:38:45;14.40;93.90
61392;DHT22;47261;52.892;5.738;2022-10-16T04:41:11;14.50;93.90
61392;DHT22;47261;52.892;5.738;2022-10-16T04:43:36;14.50;93.80
61392;DHT22;47261;52.892;5.738;2022-10-16T04:46:02;14.50;93.70
61392;DHT22;47261;52.892;5.738;2022-10-16T04:48:30;14.50;93.60
61392;DHT22;47261;52.892;5.738;2022-10-16T04:50:56;14.50;93.50
61392;DHT22;47261;52.892;5.738;2022-10-16T04:53:21;14.50;93.40
61392;DHT22;47261;52.892;5.738;2022-10-16T04:55:47;14.50;93.40
61392;DHT22;47261;52.892;5.738;2022-10-16T04:58:13;14.60;93.40
61392;DHT22;47261;52.892;5.738;2022-10-16T05:00:38;14.60;93.50
61392;DHT22;47261;52.892;5.738;2022-10-16T05:03:05;14.60;93.50
61392;DHT22;47261;52.892;5.738;2022-10-16T05:05:33;14.60;93.50
61392;DHT22;47261;52.892;5.738;2022-10-16T05:07:59;14.60;93.50
61392;DHT22;47261;52.892;5.738;2022-10-16T05:10:25;14.60;93.50
61392;DHT22;47261;52.892;5.738;2022-10-16T05:12:50;14.60;93.50
61392;DHT22;47261;52.892;5.738;2022-10-16T05:15:17;14.60;93.50
61392;DHT22;47261;52.892;5.738;2022-10-16T05:17:42;14.60;93.60
61392;DHT22;47261;52.892;5.738;2022-10-16T05:20:08;14.60;93.60
61392;DHT22;47261;52.892;5.738;2022-10-16T05:22:34;14.60;93.60
61392;DHT22;47261;52.892;5.738;2022-10-16T05:24:59;14.60;93.60
61392;DHT22;47261;52.892;5.738;2022-10-16T05:27:25;14.60;93.50
61392;DHT22;47261;52.892;5.738;2022-10-16T05:29:50;14.60;93.50
61392;DHT22;47261;52.892;5.738;2022-10-16T05:32:18;14.60;93.50
61392;DHT22;47261;52.892;5.738;2022-10-16T05:34:44;14.60;93.50
61392;DHT22;47261;52.892;5.738;2022-10-16T05:37:10;14.60;93.50
61392;DHT22;47261;52.892;5.738;2022-10-16T05:39:37;14.60;93.50
61392;DHT22;47261;52.892;5.738;2022-10-16T05:42:04;14.60;93.60
61392;DHT22;47261;52.892;5.738;2022-10-16T05:44:29;14.60;93.50
61392;DHT22;47261;52.892;5.738;2022-10-16T05:46:55;14.60;93.50
61392;DHT22;47261;52.892;5.738;2022-10-16T05:49:20;14.70;93.50
61392;DHT22;47261;52.892;5.738;2022-10-16T05:51:46;14.70;93.50
61392;DHT22;47261;52.892;5.738;2022-10-16T05:54:12;14.60;93.50
61392;DHT22;47261;52.892;5.738;2022-10-16T05:56:37;14.60;93.50
61392;DHT22;47261;52.892;5.738;2022-10-16T05:59:04;14.70;93.50
61392;DHT22;47261;52.892;5.738;2022-10-16T06:01:29;14.70;93.40
61392;DHT22;47261;52.892;5.738;2022-10-16T06:03:56;14.60;93.30
61392;DHT22;47261;52.892;5.738;2022-10-16T06:06:25;14.60;93.30
61392;DHT22;47261;52.892;5.738;2022-10-16T06:08:52;14.70;93.30
61392;DHT22;47261;52.892;5.738;2022-10-16T06:11:20;14.70;93.30
61392;DHT22;47261;52.892;5.738;2022-10-16T06:13:54;14.70;93.40
61392;DHT22;47261;52.892;5.738;2022-10-16T06:16:22;14.60;93.40
61392;DHT22;47261;52.892;5.738;2022-10-16T06:18:51;14.60;93.50
61392;DHT22;47261;52.892;5.738;2022-10-16T06:21:18;14.60;93.50
61392;DHT22;47261;52.892;5.738;2022-10-16T06:23:44;14.60;93.50
61392;DHT22;47261;52.892;5.738;2022-10-16T06:26:16;14.60;93.60
61392;DHT22;47261;52.892;5.738;2022-10-16T06:28:42;14.60;93.70
61392;DHT22;47261;52.892;5.738;2022-10-16T06:31:10;14.60;93.70
61392;DHT22;47261;52.892;5.738;2022-10-16T06:33:37;14.50;93.70
61392;DHT22;47261;52.892;5.738;2022-10-16T06:36:08;14.50;93.80
61392;DHT22;47261;52.892;5.738;2022-10-16T06:38:34;14.50;93.90
61392;DHT22;47261;52.892;5.738;2022-10-16T06:41:00;14.50;94.00
61392;DHT22;47261;52.892;5.738;2022-10-16T06:43:28;14.50;94.00
61392;DHT22;47261;52.892;5.738;2022-10-16T06:45:56;14.50;94.20
61392;DHT22;47261;52.892;5.738;2022-10-16T06:48:23;14.50;94.40
61392;DHT22;47261;52.892;5.738;2022-10-16T06:51:06;14.40;94.40
61392;DHT22;47261;52.892;5.738;2022-10-16T06:53:34;14.40;94.40
61392;DHT22;47261;52.892;5.738;2022-10-16T06:56:08;14.40;94.40
61392;DHT22;47261;52.892;5.738;2022-10-16T06:58:34;14.40;94.40
61392;DHT22;47261;52.892;5.738;2022-10-16T07:00:59;14.50;94.40
61392;DHT22;47261;52.892;5.738;2022-10-16T07:03:25;14.50;94.50
61392;DHT22;47261;52.892;5.738;2022-10-16T07:05:50;14.50;94.50
61392;DHT22;47261;52.892;5.738;2022-10-16T07:08:16;14.60;94.60
61392;DHT22;47261;52.892;5.738;2022-10-16T07:10:42;14.60;94.50
61392;DHT22;47261;52.892;5.738;2022-10-16T07:13:07;14.60;94.80
61392;DHT22;47261;52.892;5.738;2022-10-16T07:15:33;14.60;94.40
61392;DHT22;47261;52.892;5.738;2022-10-16T07:17:59;14.70;94.40
61392;DHT22;47261;52.892;5.738;2022-10-16T07:20:25;14.70;94.30
61392;DHT22;47261;52.892;5.738;2022-10-16T07:22:50;14.70;94.20
61392;DHT22;47261;52.892;5.738;2022-10-16T07:25:16;14.70;94.10
61392;DHT22;47261;52.892;5.738;2022-10-16T07:27:42;14.80;94.00
61392;DHT22;47261;52.892;5.738;2022-10-16T07:30:08;14.80;93.80
61392;DHT22;47261;52.892;5.738;2022-10-16T07:32:34;14.80;93.50
61392;DHT22;47261;52.892;5.738;2022-10-16T07:34:59;14.90;93.50
61392;DHT22;47261;52.892;5.738;2022-10-16T07:37:25;14.90;93.50
61392;DHT22;47261;52.892;5.738;2022-10-16T07:39:50;14.90;93.50
61392;DHT22;47261;52.892;5.738;2022-10-16T07:42:17;14.90;93.70
61392;DHT22;47261;52.892;5.738;2022-10-16T07:44:43;14.90;93.80
61392;DHT22;47261;52.892;5.738;2022-10-16T07:47:09;14.90;93.90
61392;DHT22;47261;52.892;5.738;2022-10-16T07:49:34;14.80;94.00
61392;DHT22;47261;52.892;5.738;2022-10-16T07:52:00;14.80;94.10
61392;DHT22;47261;52.892;5.738;2022-10-16T07:54:25;14.70;94.20
61392;DHT22;47261;52.892;5.738;2022-10-16T07:56:51;14.70;94.30
61392;DHT22;47261;52.892;5.738;2022-10-16T07:59:17;14.70;94.50
61392;DHT22;47261;52.892;5.738;2022-10-16T08:01:43;14.70;94.50
61392;DHT22;47261;52.892;5.738;2022-10-16T08:04:09;14.80;94.50
61392;DHT22;47261;52.892;5.738;2022-10-16T08:06:37;14.90;94.40
61392;DHT22;47261;52.892;5.738;2022-10-16T08:09:03;14.90;94.40
61392;DHT22;47261;52.892;5.738;2022-10-16T08:11:29;15.00;94.30
61392;DHT22;47261;52.892;5.738;2022-10-16T08:13:54;15.10;94.00
61392;DHT22;47261;52.892;5.738;2022-10-16T08:16:20;15.10;93.90
61392;DHT22;47261;52.892;5.738;2022-10-16T08:18:46;15.20;93.80
61392;DHT22;47261;52.892;5.738;2022-10-16T08:21:16;15.20;93.70
61392;DHT22;47261;52.892;5.738;2022-10-16T08:23:42;15.30;93.70
61392;DHT22;47261;52.892;5.738;2022-10-16T08:26:08;15.40;93.40
61392;DHT22;47261;52.892;5.738;2022-10-16T08:28:35;15.40;93.20
61392;DHT22;47261;52.892;5.738;2022-10-16T08:31:14;15.50;93.10
61392;DHT22;47261;52.892;5.738;2022-10-16T08:33:42;15.60;92.90
61392;DHT22;47261;52.892;5.738;2022-10-16T08:36:10;15.70;92.90
61392;DHT22;47261;52.892;5.738;2022-10-16T08:38:36;15.80;92.80
61392;DHT22;47261;52.892;5.738;2022-10-16T08:41:22;15.80;92.40
61392;DHT22;47261;52.892;5.738;2022-10-16T08:46:48;16.00;92.10
61392;DHT22;47261;52.892;5.738;2022-10-16T08:49:15;16.00;91.70
61392;DHT22;47261;52.892;5.738;2022-10-16T08:51:41;16.00;91.60
61392;DHT22;47261;52.892;5.738;2022-10-16T08:57:14;16.00;91.80
61392;DHT22;47261;52.892;5.738;2022-10-16T08:59:41;16.00;92.00
61392;DHT22;47261;52.892;5.738;2022-10-16T09:10:51;15.90;91.90
61392;DHT22;47261;52.892;5.738;2022-10-16T09:13:22;16.00;91.80
61392;DHT22;47261;52.892;5.738;2022-10-16T09:16:13;16.00;92.00
61392;DHT22;47261;52.892;5.738;2022-10-16T09:21:29;16.00;92.00
61392;DHT22;47261;52.892;5.738;2022-10-16T09:24:23;15.90;92.20
61392;DHT22;47261;52.892;5.738;2022-10-16T09:26:49;16.00;92.30
61392;DHT22;47261;52.892;5.738;2022-10-16T09:29:19;16.00;92.10
61392;DHT22;47261;52.892;5.738;2022-10-16T09:31:46;16.10;91.90
61392;DHT22;47261;52.892;5.738;2022-10-16T09:34:30;16.10;92.10
61392;DHT22;47261;52.892;5.738;2022-10-16T09:36:57;16.10;92.30
61392;DHT22;47261;52.892;5.738;2022-10-16T09:39:24;16.20;92.20
61392;DHT22;47261;52.892;5.738;2022-10-16T09:41:50;16.20;92.10
61392;DHT22;47261;52.892;5.738;2022-10-16T09:44:21;16.20;92.10
61392;DHT22;47261;52.892;5.738;2022-10-16T09:46:48;16.20;91.90
61392;DHT22;47261;52.892;5.738;2022-10-16T09:49:25;16.30;92.00
61392;DHT22;47261;52.892;5.738;2022-10-16T09:52:06;16.30;92.10
61392;DHT22;47261;52.892;5.738;2022-10-16T09:54:35;16.30;92.10
61392;DHT22;47261;52.892;5.738;2022-10-16T09:57:05;16.40;91.80
61392;DHT22;47261;52.892;5.738;2022-10-16T09:59:32;16.50;91.60
61392;DHT22;47261;52.892;5.738;2022-10-16T10:02:03;16.50;91.60
61392;DHT22;47261;52.892;5.738;2022-10-16T10:04:39;16.60;91.40
61392;DHT22;47261;52.892;5.738;2022-10-16T10:07:07;16.70;91.10
61392;DHT22;47261;52.892;5.738;2022-10-16T10:09:44;16.80;90.90
61392;DHT22;47261;52.892;5.738;2022-10-16T10:12:40;16.90;90.40
61392;DHT22;47261;52.892;5.738;2022-10-16T10:15:13;17.10;90.40
61392;DHT22;47261;52.892;5.738;2022-10-16T10:17:48;17.20;89.70
61392;DHT22;47261;52.892;5.738;2022-10-16T10:20:35;17.20;89.50
61392;DHT22;47261;52.892;5.738;2022-10-16T10:23:21;17.20;88.70
61392;DHT22;47261;52.892;5.738;2022-10-16T10:26:07;17.30;88.70
61392;DHT22;47261;52.892;5.738;2022-10-16T10:34:01;17.50;86.70
61392;DHT22;47261;52.892;5.738;2022-10-16T10:36:34;17.60;86.60
61392;DHT22;47261;52.892;5.738;2022-10-16T10:44:34;17.60;87.00
61392;DHT22;47261;52.892;5.738;2022-10-16T10:52:47;17.60;86.10
61392;DHT22;47261;52.892;5.738;2022-10-16T10:58:18;17.50;84.80
61392;DHT22;47261;52.892;5.738;2022-10-16T11:01:09;17.50;84.70
61392;DHT22;47261;52.892;5.738;2022-10-16T11:06:51;17.30;86.50
61392;DHT22;47261;52.892;5.738;2022-10-16T11:09:24;17.30;88.10
61392;DHT22;47261;52.892;5.738;2022-10-16T11:12:01;17.30;89.10
61392;DHT22;47261;52.892;5.738;2022-10-16T11:14:50;17.30;88.20
61392;DHT22;47261;52.892;5.738;2022-10-16T11:17:31;17.30;89.10
61392;DHT22;47261;52.892;5.738;2022-10-16T11:20:05;17.30;88.40
61392;DHT22;47261;52.892;5.738;2022-10-16T11:22:41;17.40;89.30
61392;DHT22;47261;52.892;5.738;2022-10-16T11:25:26;17.40;88.70
61392;DHT22;47261;52.892;5.738;2022-10-16T11:36:04;17.50;86.10
61392;DHT22;47261;52.892;5.738;2022-10-16T11:46:42;17.60;82.50
61392;DHT22;47261;52.892;5.738;2022-10-16T11:49:20;17.60;83.90
61392;DHT22;47261;52.892;5.738;2022-10-16T11:52:15;17.60;83.50
61392;DHT22;47261;52.892;5.738;2022-10-16T11:57:34;17.70;81.40
61392;DHT22;47261;52.892;5.738;2022-10-16T12:00:06;17.70;80.60
61392;DHT22;47261;52.892;5.738;2022-10-16T12:02:52;17.70;81.40
61392;DHT22;47261;52.892;5.738;2022-10-16T12:08:11;17.70;81.80
61392;DHT22;47261;52.892;5.738;2022-10-16T12:10:39;17.70;81.60
61392;DHT22;47261;52.892;5.738;2022-10-16T12:18:44;17.80;81.60
61392;DHT22;47261;52.892;5.738;2022-10-16T12:21:11;17.80;82.60
61392;DHT22;47261;52.892;5.738;2022-10-16T12:23:59;17.90;82.00
61392;DHT22;47261;52.892;5.738;2022-10-16T12:26:29;18.00;81.00
61392;DHT22;47261;52.892;5.738;2022-10-16T12:29:09;18.00;80.80
61392;DHT22;47261;52.892;5.738;2022-10-16T12:31:43;18.10;81.00
61392;DHT22;47261;52.892;5.738;2022-10-16T12:37:10;18.20;79.50
61392;DHT22;47261;52.892;5.738;2022-10-16T12:39:37;18.30;78.70
61392;DHT22;47261;52.892;5.738;2022-10-16T12:42:06;18.40;78.30
61392;DHT22;47261;52.892;5.738;2022-10-16T12:44:44;18.40;77.20
61392;DHT22;47261;52.892;5.738;2022-10-16T12:47:23;18.50;76.00
61392;DHT22;47261;52.892;5.738;2022-10-16T12:49:52;18.70;77.20
61392;DHT22;47261;52.892;5.738;2022-10-16T12:52:36;18.80;76.00
61392;DHT22;47261;52.892;5.738;2022-10-16T12:55:03;19.00;75.90
61392;DHT22;47261;52.892;5.738;2022-10-16T13:00:28;19.00;75.80
61392;DHT22;47261;52.892;5.738;2022-10-16T13:09:17;18.70;75.60
61392;DHT22;47261;52.892;5.738;2022-10-16T13:20:12;18.60;75.60
61392;DHT22;47261;52.892;5.738;2022-10-16T13:25:34;18.70;74.60
61392;DHT22;47261;52.892;5.738;2022-10-16T13:28:07;18.70;74.20
61392;DHT22;47261;52.892;5.738;2022-10-16T13:30:44;18.60;74.90
61392;DHT22;47261;52.892;5.738;2022-10-16T13:33:37;18.60;73.90
61392;DHT22;47261;52.892;5.738;2022-10-16T13:36:05;18.60;74.90
61392;DHT22;47261;52.892;5.738;2022-10-16T13:38:35;18.60;74.60
61392;DHT22;47261;52.892;5.738;2022-10-16T13:48:25;18.30;76.70
61392;DHT22;47261;52.892;5.738;2022-10-16T13:51:02;18.20;77.20
61392;DHT22;47261;52.892;5.738;2022-10-16T13:53:33;18.20;76.80
61392;DHT22;47261;52.892;5.738;2022-10-16T13:56:01;18.20;77.10
61392;DHT22;47261;52.892;5.738;2022-10-16T13:58:27;18.10;76.40
61392;DHT22;47261;52.892;5.738;2022-10-16T14:01:02;18.10;77.40
61392;DHT22;47261;52.892;5.738;2022-10-16T14:03:29;18.10;77.50
61392;DHT22;47261;52.892;5.738;2022-10-16T14:05:59;18.10;77.80
61392;DHT22;47261;52.892;5.738;2022-10-16T14:08:26;18.00;77.70
61392;DHT22;47261;52.892;5.738;2022-10-16T14:10:55;18.00;78.10
61392;DHT22;47261;52.892;5.738;2022-10-16T14:13:40;17.90;78.40
61392;DHT22;47261;52.892;5.738;2022-10-16T14:16:15;17.90;77.60
61392;DHT22;47261;52.892;5.738;2022-10-16T14:18:55;17.80;77.40
61392;DHT22;47261;52.892;5.738;2022-10-16T14:21:21;17.70;77.90
61392;DHT22;47261;52.892;5.738;2022-10-16T14:23:47;17.60;78.70
61392;DHT22;47261;52.892;5.738;2022-10-16T14:26:15;17.60;79.70
61392;DHT22;47261;52.892;5.738;2022-10-16T14:28:42;17.50;80.20
61392;DHT22;47261;52.892;5.738;2022-10-16T14:31:29;17.50;80.70
61392;DHT22;47261;52.892;5.738;2022-10-16T14:33:55;17.50;81.10
61392;DHT22;47261;52.892;5.738;2022-10-16T14:36:22;17.40;81.20
61392;DHT22;47261;52.892;5.738;2022-10-16T14:41:24;17.30;81.70
61392;DHT22;47261;52.892;5.738;2022-10-16T14:43:56;17.30;82.10
61392;DHT22;47261;52.892;5.738;2022-10-16T14:46:29;17.20;82.40
61392;DHT22;47261;52.892;5.738;2022-10-16T14:49:01;17.10;82.80
61392;DHT22;47261;52.892;5.738;2022-10-16T14:51:27;17.10;83.20
61392;DHT22;47261;52.892;5.738;2022-10-16T14:53:53;17.10;83.40
61392;DHT22;47261;52.892;5.738;2022-10-16T14:56:24;17.00;83.40
61392;DHT22;47261;52.892;5.738;2022-10-16T14:58:51;17.00;83.50
61392;DHT22;47261;52.892;5.738;2022-10-16T15:01:17;17.00;83.60
61392;DHT22;47261;52.892;5.738;2022-10-16T15:03:43;17.00;83.60
61392;DHT22;47261;52.892;5.738;2022-10-16T15:06:16;17.00;83.70
61392;DHT22;47261;52.892;5.738;2022-10-16T15:08:42;17.00;84.10
61392;DHT22;47261;52.892;5.738;2022-10-16T15:11:21;17.00;84.30
61392;DHT22;47261;52.892;5.738;2022-10-16T15:13:46;17.00;84.70
61392;DHT22;47261;52.892;5.738;2022-10-16T15:16:14;17.10;84.80
61392;DHT22;47261;52.892;5.738;2022-10-16T15:18:40;17.00;84.70
61392;DHT22;47261;52.892;5.738;2022-10-16T15:21:06;17.00;84.90
61392;DHT22;47261;52.892;5.738;2022-10-16T15:23:33;17.00;85.30
61392;DHT22;47261;52.892;5.738;2022-10-16T15:25:58;17.00;85.50
61392;DHT22;47261;52.892;5.738;2022-10-16T15:28:25;16.90;85.40
61392;DHT22;47261;52.892;5.738;2022-10-16T15:30:55;16.90;85.10
61392;DHT22;47261;52.892;5.738;2022-10-16T15:33:24;16.80;85.00
61392;DHT22;47261;52.892;5.738;2022-10-16T15:35:53;16.70;84.80
61392;DHT22;47261;52.892;5.738;2022-10-16T15:38:20;16.70;84.80
61392;DHT22;47261;52.892;5.738;2022-10-16T15:40:47;16.70;84.80
61392;DHT22;47261;52.892;5.738;2022-10-16T15:43:13;16.60;84.70
61392;DHT22;47261;52.892;5.738;2022-10-16T15:45:39;16.60;84.70
61392;DHT22;47261;52.892;5.738;2022-10-16T15:48:05;16.50;84.70
61392;DHT22;47261;52.892;5.738;2022-10-16T15:50:31;16.50;84.70
61392;DHT22;47261;52.892;5.738;2022-10-16T15:52:57;16.50;84.60
61392;DHT22;47261;52.892;5.738;2022-10-16T15:55:23;16.50;84.60
61392;DHT22;47261;52.892;5.738;2022-10-16T15:57:49;16.40;84.60
61392;DHT22;47261;52.892;5.738;2022-10-16T16:00:17;16.40;84.70
61392;DHT22;47261;52.892;5.738;2022-10-16T16:02:43;16.40;84.70
61392;DHT22;47261;52.892;5.738;2022-10-16T16:05:10;16.30;85.30
61392;DHT22;47261;52.892;5.738;2022-10-16T16:07:37;16.30;85.60
61392;DHT22;47261;52.892;5.738;2022-10-16T16:10:05;16.20;85.20
61392;DHT22;47261;52.892;5.738;2022-10-16T16:12:32;16.20;85.20
61392;DHT22;47261;52.892;5.738;2022-10-16T16:14:58;16.10;85.30
61392;DHT22;47261;52.892;5.738;2022-10-16T16:17:23;16.10;85.70
61392;DHT22;47261;52.892;5.738;2022-10-16T16:19:50;16.10;85.70
61392;DHT22;47261;52.892;5.738;2022-10-16T16:22:16;16.00;85.90
61392;DHT22;47261;52.892;5.738;2022-10-16T16:24:41;16.00;86.30
61392;DHT22;47261;52.892;5.738;2022-10-16T16:27:07;15.90;86.50
61392;DHT22;47261;52.892;5.738;2022-10-16T16:29:33;15.80;86.60
61392;DHT22;47261;52.892;5.738;2022-10-16T16:31:59;15.70;86.90
61392;DHT22;47261;52.892;5.738;2022-10-16T16:34:27;15.60;87.10
61392;DHT22;47261;52.892;5.738;2022-10-16T16:36:53;15.50;87.50
61392;DHT22;47261;52.892;5.738;2022-10-16T16:39:19;15.50;87.80
61392;DHT22;47261;52.892;5.738;2022-10-16T16:41:44;15.40;88.10
61392;DHT22;47261;52.892;5.738;2022-10-16T16:44:14;15.40;88.30
61392;DHT22;47261;52.892;5.738;2022-10-16T16:46:41;15.30;88.50
61392;DHT22;47261;52.892;5.738;2022-10-16T16:49:12;15.30;88.60
61392;DHT22;47261;52.892;5.738;2022-10-16T16:51:38;15.30;88.70
61392;DHT22;47261;52.892;5.738;2022-10-16T16:54:04;15.20;88.70
61392;DHT22;47261;52.892;5.738;2022-10-16T16:56:30;15.20;88.80
61392;DHT22;47261;52.892;5.738;2022-10-16T16:58:57;15.20;88.80
61392;DHT22;47261;52.892;5.738;2022-10-16T17:01:25;15.20;88.80
61392;DHT22;47261;52.892;5.738;2022-10-16T17:03:53;15.20;88.90
61392;DHT22;47261;52.892;5.738;2022-10-16T17:06:20;15.10;88.90
61392;DHT22;47261;52.892;5.738;2022-10-16T17:08:46;15.10;89.00
61392;DHT22;47261;52.892;5.738;2022-10-16T17:11:14;15.00;88.90
61392;DHT22;47261;52.892;5.738;2022-10-16T17:13:40;15.00;89.10
61392;DHT22;47261;52.892;5.738;2022-10-16T17:16:06;15.00;89.20
61392;DHT22;47261;52.892;5.738;2022-10-16T17:18:33;15.00;89.80
61392;DHT22;47261;52.892;5.738;2022-10-16T17:21:00;15.00;89.30
61392;DHT22;47261;52.892;5.738;2022-10-16T17:23:26;14.90;89.30
61392;DHT22;47261;52.892;5.738;2022-10-16T17:25:52;14.90;89.40
61392;DHT22;47261;52.892;5.738;2022-10-16T17:28:18;14.80;89.40
61392;DHT22;47261;52.892;5.738;2022-10-16T17:30:44;14.70;89.60
61392;DHT22;47261;52.892;5.738;2022-10-16T17:33:11;14.70;89.90
61392;DHT22;47261;52.892;5.738;2022-10-16T17:35:43;14.70;90.10
61392;DHT22;47261;52.892;5.738;2022-10-16T17:38:10;14.60;90.10